M I D A S
Marine Information and Data Acquisition System
Tripno 1893 of the Zeeleeuw from 2010-06-03 06:12:09 to 2010-06-03 17:18:40
Back to CruiseResearch ActivitiesStationsMapUnderway DataData graphs

EquipmentUnitsComment
TimeDGPSUTC
LatitudeDGPSDM.mWGS84
LongitudeDGPSDM.mWGS84
HeadingGyrodeg 
SOGDGPSknotsSpeed over ground
COGDGPSdegCourse over ground
DepthEcho soundermeters200 kHz
Missing or incorrect values are displayed as -999
Navigation data collected by the RV Zeeleeuw from 2010-06-03 06:13:10 to 2010-06-03 17:25:54
                                                                                    Next 1000 lines
Time Latitude Longitude Heading SOG COG Depth
2010-06-03 06:13:20 51°13.661 2°55.955 110.4 1.1 287 7.8
2010-06-03 06:13:25 51°13.662 2°55.952 110.5 1.4 288 8
2010-06-03 06:13:30 51°13.663 2°55.947 110.9 2.1 290 8
2010-06-03 06:13:35 51°13.665 2°55.942 111.8 2.7 291 4.6
2010-06-03 06:13:41 51°13.667 2°55.933 113 3.3 292 -999
2010-06-03 06:13:47 51°13.67 2°55.924 114 3.8 295 -999
2010-06-03 06:13:52 51°13.672 2°55.917 115.5 3.5 297 -999
2010-06-03 06:13:58 51°13.674 2°55.911 116.6 2.9 301 -999
2010-06-03 06:14:04 51°13.676 2°55.907 117.8 1.8 299 -999
2010-06-03 06:14:09 51°13.677 2°55.903 118 1.7 303 -999
2010-06-03 06:14:14 51°13.678 2°55.899 117.6 2 298 5.4
2010-06-03 06:14:19 51°13.68 2°55.895 117.1 2.3 301 10.3
2010-06-03 06:14:23 51°13.681 2°55.891 116.8 2.5 298 10.3
2010-06-03 06:14:28 51°13.683 2°55.886 116.5 2.8 299 10.3
2010-06-03 06:14:33 51°13.685 2°55.879 116.4 3.2 297 10.4
2010-06-03 06:14:38 51°13.688 2°55.873 116.5 3.5 299 -999
2010-06-03 06:14:44 51°13.691 2°55.863 116.7 3.8 298 -999
2010-06-03 06:14:48 51°13.693 2°55.857 116.9 4 299 -999
2010-06-03 06:14:54 51°13.696 2°55.848 116.6 4 296 -999
2010-06-03 06:14:59 51°13.698 2°55.84 115.6 4.1 296 -999
2010-06-03 06:15:04 51°13.701 2°55.831 114.6 4.2 295 -999
2010-06-03 06:15:08 51°13.702 2°55.825 113.5 4.1 294 -999
2010-06-03 06:15:14 51°13.705 2°55.815 112.6 4 293 -999
2010-06-03 06:15:19 51°13.707 2°55.806 111.3 4 292 -999
2010-06-03 06:15:24 51°13.709 2°55.799 110.1 3.9 291 -999
2010-06-03 06:15:28 51°13.71 2°55.792 108.9 3.8 290 -999
2010-06-03 06:15:34 51°13.712 2°55.783 107.5 3.7 288 -999
2010-06-03 06:15:39 51°13.713 2°55.775 106.1 3.7 287 -999
2010-06-03 06:15:44 51°13.715 2°55.768 104.9 3.6 286 13.9
2010-06-03 06:15:48 51°13.716 2°55.762 103.8 3.5 285 14.1
2010-06-03 06:15:54 51°13.717 2°55.753 102.4 3.4 284 -999
2010-06-03 06:15:59 51°13.718 2°55.746 100.9 3.2 283 4.6
2010-06-03 06:16:03 51°13.719 2°55.741 99.4 3.1 282 4.6
2010-06-03 06:16:08 51°13.72 2°55.736 98.1 2.7 284 4.5
2010-06-03 06:16:13 51°13.72 2°55.733 97.2 1.5 283 4.7
2010-06-03 06:16:18 51°13.721 2°55.731 95.5 1 293 15.1
2010-06-03 06:16:23 51°13.721 2°55.73 89.3 0.6 296 15.1
2010-06-03 06:16:28 51°13.722 2°55.729 85.1 0.5 314 5.2
2010-06-03 06:16:32 51°13.722 2°55.729 79.4 0.4 339 15
2010-06-03 06:16:37 51°13.723 2°55.729 75.6 0.4 4 14.3
2010-06-03 06:16:42 51°13.724 2°55.729 71.2 0.7 15 15.1
2010-06-03 06:16:47 51°13.724 2°55.731 66.9 0.9 49 14.8
2010-06-03 06:16:52 51°13.725 2°55.731 60.8 0.9 24 14.3
2010-06-03 06:16:56 51°13.726 2°55.732 56 0.4 10 14.2
2010-06-03 06:17:01 51°13.726 2°55.731 52.1 0.4 263 14.2
2010-06-03 06:17:06 51°13.725 2°55.729 48 0.9 237 14.3
2010-06-03 06:17:11 51°13.724 2°55.727 44 1.5 228 14.5
2010-06-03 06:17:16 51°13.722 2°55.724 41.5 1.7 231 14.8
2010-06-03 06:17:21 51°13.72 2°55.722 39.1 1.6 218 14.4
2010-06-03 06:17:26 51°13.719 2°55.719 36.6 1.6 225 -999
2010-06-03 06:17:32 51°13.717 2°55.716 34.9 1.5 218 -999
2010-06-03 06:17:38 51°13.715 2°55.714 33.6 1.3 229 -999
2010-06-03 06:17:43 51°13.715 2°55.713 32.4 0.3 254 -999
2010-06-03 06:17:48 51°13.716 2°55.713 29.8 0.7 359 -999
2010-06-03 06:17:54 51°13.718 2°55.714 23 1.3 11 13.6
2010-06-03 06:17:59 51°13.721 2°55.714 17.5 1.7 -999 14.4
2010-06-03 06:18:03 51°13.723 2°55.714 11.8 2.2 359 14.7
2010-06-03 06:18:08 51°13.726 2°55.713 4.9 2.4 348 -999
2010-06-03 06:18:13 51°13.73 2°55.711 357.4 2.6 345 4.7
2010-06-03 06:18:19 51°13.735 2°55.708 349.2 2.9 338 -999
2010-06-03 06:18:24 51°13.739 2°55.706 343.4 3.2 338 14.1
2010-06-03 06:18:28 51°13.742 2°55.703 339.4 3.5 335 13.7
2010-06-03 06:18:33 51°13.747 2°55.699 337.9 3.8 335 13.7
2010-06-03 06:18:38 51°13.752 2°55.695 336.1 4.1 335 13.4
2010-06-03 06:18:43 51°13.758 2°55.691 335.4 4.4 335 13.3
2010-06-03 06:18:48 51°13.764 2°55.686 335.4 4.6 335 13.3
2010-06-03 06:18:52 51°13.769 2°55.683 335.6 4.9 334 13.4
2010-06-03 06:18:57 51°13.775 2°55.677 335.6 5.1 333 13.3
2010-06-03 06:19:02 51°13.782 2°55.672 335 5.3 334 13.5
2010-06-03 06:19:07 51°13.789 2°55.667 334.7 5.5 334 13.3
2010-06-03 06:19:12 51°13.796 2°55.661 334.7 5.7 333 13.1
2010-06-03 06:19:16 51°13.802 2°55.656 334.8 5.9 334 13.1
2010-06-03 06:19:21 51°13.809 2°55.65 335.1 6 334 13
2010-06-03 06:19:26 51°13.817 2°55.645 335.4 6.1 334 13
2010-06-03 06:19:31 51°13.825 2°55.639 335.6 6.3 334 13
2010-06-03 06:19:36 51°13.833 2°55.633 336 6.3 335 13
2010-06-03 06:19:41 51°13.84 2°55.627 336.3 6.4 335 13.1
2010-06-03 06:19:46 51°13.849 2°55.62 336.5 6.6 334 13.1
2010-06-03 06:19:51 51°13.857 2°55.614 336.3 6.8 334 13
2010-06-03 06:19:56 51°13.866 2°55.607 336.2 6.9 334 12.8
2010-06-03 06:20:00 51°13.873 2°55.602 337.2 7 336 12.6
2010-06-03 06:20:05 51°13.882 2°55.596 337.6 7.1 336 12.4
2010-06-03 06:20:10 51°13.891 2°55.59 338.2 7.3 338 12.3
2010-06-03 06:20:15 51°13.901 2°55.583 338.5 7.4 338 12.6
2010-06-03 06:20:20 51°13.911 2°55.577 338.6 7.5 336 4.7
2010-06-03 06:20:25 51°13.92 2°55.569 337.8 7.6 333 4.9
2010-06-03 06:20:30 51°13.929 2°55.561 336.1 7.6 332 12.8
2010-06-03 06:20:35 51°13.939 2°55.554 335.2 7.7 335 4.9
2010-06-03 06:20:40 51°13.948 2°55.547 336.5 7.7 336 12.6
2010-06-03 06:20:45 51°13.958 2°55.54 337.8 7.6 336 12.6
2010-06-03 06:20:50 51°13.967 2°55.533 337.1 7.5 333 12.8
2010-06-03 06:20:55 51°13.977 2°55.526 336.1 7.5 335 12.8
2010-06-03 06:21:00 51°13.986 2°55.519 336.6 7.5 336 12.7
2010-06-03 06:21:05 51°13.996 2°55.512 337.7 7.5 336 12.8
2010-06-03 06:21:10 51°14.005 2°55.506 337.8 7.5 336 12.8
2010-06-03 06:21:15 51°14.015 2°55.498 337.4 7.5 335 12.6
2010-06-03 06:21:20 51°14.024 2°55.492 337.2 7.5 336 12.6
2010-06-03 06:21:25 51°14.034 2°55.485 337.3 7.5 336 12.5
2010-06-03 06:21:30 51°14.043 2°55.478 337.6 7.5 337 12.6
2010-06-03 06:21:35 51°14.053 2°55.472 337.6 7.6 336 12.6
2010-06-03 06:21:40 51°14.062 2°55.464 337.1 7.6 335 12.5
2010-06-03 06:21:45 51°14.072 2°55.457 337 7.6 334 12.5
2010-06-03 06:21:50 51°14.081 2°55.449 336.2 7.6 333 12.5
2010-06-03 06:21:55 51°14.091 2°55.442 335.6 7.6 334 12.5
2010-06-03 06:22:00 51°14.1 2°55.435 336.1 7.6 334 12.5
2010-06-03 06:22:05 51°14.11 2°55.427 336.4 7.6 334 12.6
2010-06-03 06:22:10 51°14.119 2°55.42 335.6 7.7 333 12.5
2010-06-03 06:22:15 51°14.129 2°55.412 334.7 7.7 333 12.5
2010-06-03 06:22:20 51°14.138 2°55.404 334.4 7.7 333 12.5
2010-06-03 06:22:25 51°14.148 2°55.396 334.5 7.7 333 12.4
2010-06-03 06:22:30 51°14.157 2°55.387 333.6 7.8 330 12.4
2010-06-03 06:22:35 51°14.166 2°55.379 332.7 7.8 330 12.5
2010-06-03 06:22:40 51°14.176 2°55.37 332.3 7.9 330 12.5
2010-06-03 06:22:45 51°14.185 2°55.361 331.1 7.9 328 12.5
2010-06-03 06:22:50 51°14.195 2°55.351 329.8 8 327 4.5
2010-06-03 06:22:55 51°14.204 2°55.342 328.9 8 327 12.5
2010-06-03 06:23:00 51°14.213 2°55.332 328.8 8 327 12.5
2010-06-03 06:23:05 51°14.223 2°55.323 329.4 8 328 12.4
2010-06-03 06:23:10 51°14.232 2°55.313 329.8 8.1 328 4.5
2010-06-03 06:23:15 51°14.242 2°55.304 330.3 8.1 328 -999
2010-06-03 06:23:20 51°14.251 2°55.294 330.8 8.2 328 12.5
2010-06-03 06:23:25 51°14.261 2°55.285 331.2 8.3 329 12.4
2010-06-03 06:23:30 51°14.271 2°55.275 331.6 8.4 329 10.7
2010-06-03 06:23:35 51°14.282 2°55.266 331.8 8.6 330 12.5
2010-06-03 06:23:40 51°14.292 2°55.256 331.6 8.7 328 12.3
2010-06-03 06:23:45 51°14.302 2°55.246 331.3 8.9 329 12.1
2010-06-03 06:23:50 51°14.313 2°55.235 331.4 9 329 12.5
2010-06-03 06:23:55 51°14.324 2°55.225 332.1 9.1 330 12.4
2010-06-03 06:24:00 51°14.335 2°55.215 332.4 9.1 329 12.3
2010-06-03 06:24:05 51°14.346 2°55.204 331.7 9.2 329 12.3
2010-06-03 06:24:10 51°14.357 2°55.194 331.5 9.3 329 12.1
2010-06-03 06:24:15 51°14.368 2°55.183 332.1 9.3 330 12.2
2010-06-03 06:24:20 51°14.379 2°55.173 332.2 9.4 329 12.1
2010-06-03 06:24:25 51°14.39 2°55.162 331.8 9.4 329 12.1
2010-06-03 06:24:30 51°14.401 2°55.151 331.7 9.4 329 12
2010-06-03 06:24:35 51°14.412 2°55.14 331.7 9.4 328 12.2
2010-06-03 06:24:40 51°14.424 2°55.129 331.1 9.5 328 12.2
2010-06-03 06:24:45 51°14.435 2°55.118 330.5 9.5 328 12.4
2010-06-03 06:24:50 51°14.446 2°55.107 330.5 9.5 328 12.7
2010-06-03 06:24:55 51°14.457 2°55.096 330.7 9.7 329 12.9
2010-06-03 06:25:00 51°14.469 2°55.084 331.1 9.8 328 5
2010-06-03 06:25:05 51°14.481 2°55.073 331.4 9.8 329 4.9
2010-06-03 06:25:10 51°14.492 2°55.061 331.6 9.9 328 12.8
2010-06-03 06:25:15 51°14.504 2°55.049 330.7 10 327 13
2010-06-03 06:25:20 51°14.516 2°55.037 330.1 10.1 328 12.7
2010-06-03 06:25:25 51°14.528 2°55.025 330.8 10.2 328 12.9
2010-06-03 06:25:30 51°14.54 2°55.014 332.2 10.3 331 13.1
2010-06-03 06:25:35 51°14.553 2°55.002 332.5 10.5 329 13.4
2010-06-03 06:25:40 51°14.565 2°54.99 331.9 10.6 328 13.2
2010-06-03 06:25:45 51°14.578 2°54.978 330.8 10.7 329 13.2
2010-06-03 06:25:50 51°14.591 2°54.966 331.3 10.8 330 13.3
2010-06-03 06:25:55 51°14.604 2°54.954 332.2 10.8 330 13.3
2010-06-03 06:26:00 51°14.617 2°54.941 331.1 11 329 13.3
2010-06-03 06:26:05 51°14.63 2°54.929 330.8 11.1 329 13.1
2010-06-03 06:26:10 51°14.643 2°54.916 330.6 11.2 329 13
2010-06-03 06:26:15 51°14.657 2°54.903 330.4 11.3 329 13.3
2010-06-03 06:26:20 51°14.67 2°54.891 330.7 11.4 330 13.3
2010-06-03 06:26:25 51°14.684 2°54.877 330.5 11.5 328 13.4
2010-06-03 06:26:30 51°14.698 2°54.864 330.2 11.7 330 13.3
2010-06-03 06:26:35 51°14.712 2°54.851 330 11.8 329 13.3
2010-06-03 06:26:40 51°14.727 2°54.838 330.9 12 331 13.5
2010-06-03 06:26:45 51°14.741 2°54.824 331 12.2 330 13.7
2010-06-03 06:26:50 51°14.757 2°54.811 331.1 12.5 331 13.5
2010-06-03 06:26:55 51°14.772 2°54.797 331 12.8 330 13.4
2010-06-03 06:27:00 51°14.788 2°54.783 330.9 12.9 331 13.2
2010-06-03 06:27:05 51°14.804 2°54.768 331 13.1 331 13.2
2010-06-03 06:27:10 51°14.819 2°54.754 330.6 13.2 329 4.9
2010-06-03 06:27:15 51°14.835 2°54.739 329.9 13.3 330 12.8
2010-06-03 06:27:20 51°14.851 2°54.723 329.1 13.4 327 12.5
2010-06-03 06:27:25 51°14.867 2°54.708 328.6 13.5 329 12.1
2010-06-03 06:27:30 51°14.882 2°54.691 327.1 13.4 326 12.2
2010-06-03 06:27:35 51°14.898 2°54.676 326 13.4 328 11.8
2010-06-03 06:27:40 51°14.913 2°54.659 325.1 13.3 324 11.6
2010-06-03 06:27:45 51°14.928 2°54.641 323 13.3 324 11.6
2010-06-03 06:27:50 51°14.943 2°54.624 322.7 13.3 323 11.5
2010-06-03 06:27:55 51°14.958 2°54.606 321.6 13.3 322 11.3
2010-06-03 06:28:00 51°14.973 2°54.589 320.7 13.4 324 11
2010-06-03 06:28:05 51°14.987 2°54.569 319.8 13.3 320 11.3
2010-06-03 06:28:10 51°15.001 2°54.552 320 13.3 323 11
2010-06-03 06:28:15 51°15.015 2°54.533 319.3 13.3 319 11
2010-06-03 06:28:20 51°15.03 2°54.515 318.7 13.3 322 11.3
2010-06-03 06:28:25 51°15.044 2°54.495 318.9 13.4 320 11
2010-06-03 06:28:30 51°15.058 2°54.477 319.1 13.4 321 10.9
2010-06-03 06:28:35 51°15.072 2°54.458 318.7 13.3 321 11.1
2010-06-03 06:28:40 51°15.086 2°54.439 318.7 13.3 321 11.1
2010-06-03 06:28:45 51°15.101 2°54.42 318.1 13.4 320 11.1
2010-06-03 06:28:50 51°15.115 2°54.401 318.3 13.3 320 11.1
2010-06-03 06:28:55 51°15.129 2°54.383 318.8 13.4 320 11.3
2010-06-03 06:29:00 51°15.143 2°54.363 318.2 13.4 320 11.3
2010-06-03 06:29:05 51°15.157 2°54.345 318.6 13.3 320 11.3
2010-06-03 06:29:10 51°15.171 2°54.326 319 13.4 320 11.5
2010-06-03 06:29:15 51°15.186 2°54.307 318.8 13.4 320 11.6
2010-06-03 06:29:20 51°15.199 2°54.287 318.7 13.4 319 11.6
2010-06-03 06:29:25 51°15.214 2°54.268 318.9 13.3 320 11.7
2010-06-03 06:29:30 51°15.228 2°54.248 319.2 13.4 319 11.7
2010-06-03 06:29:35 51°15.242 2°54.229 319.5 13.4 320 11.8
2010-06-03 06:29:40 51°15.256 2°54.21 320 13.4 320 11.8
2010-06-03 06:29:45 51°15.27 2°54.191 320.2 13.4 320 11.8
2010-06-03 06:29:50 51°15.285 2°54.172 320 13.4 320 12
2010-06-03 06:29:55 51°15.299 2°54.153 320.2 13.4 319 12
2010-06-03 06:30:00 51°15.313 2°54.134 320.2 13.4 320 12
2010-06-03 06:30:05 51°15.327 2°54.115 320.5 13.4 319 12
2010-06-03 06:30:10 51°15.342 2°54.096 320.5 13.5 320 12.2
2010-06-03 06:30:15 51°15.356 2°54.077 320.7 13.5 321 12.1
2010-06-03 06:30:20 51°15.371 2°54.058 321.4 13.4 321 12.2
2010-06-03 06:30:25 51°15.385 2°54.039 321.6 13.5 321 12.2
2010-06-03 06:30:30 51°15.399 2°54.02 321.3 13.5 321 12.2
2010-06-03 06:30:35 51°15.414 2°54.002 321.3 13.5 321 12.2
2010-06-03 06:30:40 51°15.429 2°53.983 321.7 13.5 321 12.3
2010-06-03 06:30:45 51°15.444 2°53.965 322.4 13.4 322 12.4
2010-06-03 06:30:50 51°15.458 2°53.947 323.1 13.5 322 12.3
2010-06-03 06:30:55 51°15.473 2°53.929 323.5 13.4 323 12.5
2010-06-03 06:31:00 51°15.488 2°53.911 324.2 13.4 322 12.5
2010-06-03 06:31:05 51°15.503 2°53.894 324.7 13.4 324 12.5
2010-06-03 06:31:10 51°15.518 2°53.876 324.4 13.4 323 12.4
2010-06-03 06:31:15 51°15.533 2°53.858 324.5 13.4 324 12.6
2010-06-03 06:31:20 51°15.548 2°53.841 324.5 13.4 324 12.6
2010-06-03 06:31:25 51°15.563 2°53.823 324.8 13.4 325 12.4
2010-06-03 06:31:30 51°15.578 2°53.806 325.3 13.4 324 12.6
2010-06-03 06:31:35 51°15.594 2°53.789 325.4 13.4 325 12.7
2010-06-03 06:31:40 51°15.609 2°53.772 325.7 13.4 325 12.8
2010-06-03 06:31:45 51°15.624 2°53.755 325.7 13.5 325 12.7
2010-06-03 06:31:50 51°15.639 2°53.738 325.9 13.5 325 12.6
2010-06-03 06:31:55 51°15.654 2°53.72 326 13.5 324 12.8
2010-06-03 06:32:00 51°15.669 2°53.703 325.4 13.4 324 12.8
2010-06-03 06:32:05 51°15.685 2°53.686 325.4 13.5 325 12.8
2010-06-03 06:32:10 51°15.7 2°53.668 325.2 13.5 325 12.8
2010-06-03 06:32:15 51°15.715 2°53.651 325.3 13.5 324 12.8
2010-06-03 06:32:20 51°15.73 2°53.634 325.5 13.5 325 12.9
2010-06-03 06:32:25 51°15.746 2°53.617 325.3 13.4 325 13
2010-06-03 06:32:30 51°15.761 2°53.601 325.7 13.4 326 12.8
2010-06-03 06:32:35 51°15.777 2°53.584 326.2 13.4 327 13.1
2010-06-03 06:32:40 51°15.793 2°53.569 327.7 13.4 329 13.1
2010-06-03 06:32:45 51°15.808 2°53.553 327.7 13.4 327 12.9
2010-06-03 06:32:50 51°15.824 2°53.538 328.3 13.5 329 13.1
2010-06-03 06:32:55 51°15.84 2°53.522 328.6 13.5 328 13.1
2010-06-03 06:33:00 51°15.856 2°53.507 329.2 13.5 330 13
2010-06-03 06:33:05 51°15.872 2°53.492 328.8 13.5 329 13.1
2010-06-03 06:33:10 51°15.888 2°53.477 329.5 13.5 331 13
2010-06-03 06:33:15 51°15.905 2°53.463 331.1 13.5 331 13.1
2010-06-03 06:33:20 51°15.921 2°53.449 331.6 13.5 332 13
2010-06-03 06:33:25 51°15.938 2°53.435 331.8 13.5 333 13.2
2010-06-03 06:33:30 51°15.955 2°53.421 332.1 13.4 333 13.1
2010-06-03 06:33:35 51°15.971 2°53.408 332.4 13.4 333 13.2
2010-06-03 06:33:40 51°15.988 2°53.395 332.7 13.4 333 13.2
2010-06-03 06:33:45 51°16.005 2°53.382 332.9 13.4 333 13.3
2010-06-03 06:33:50 51°16.022 2°53.369 333 13.5 334 13.2
2010-06-03 06:33:55 51°16.038 2°53.356 333 13.4 334 13.3
2010-06-03 06:34:00 51°16.055 2°53.342 333.1 13.4 333 13.4
2010-06-03 06:34:05 51°16.071 2°53.329 332.6 13.4 334 13.3
2010-06-03 06:34:10 51°16.088 2°53.316 332.5 13.4 334 13.5
2010-06-03 06:34:15 51°16.105 2°53.303 333 13.4 333 13.4
2010-06-03 06:34:20 51°16.121 2°53.289 332.6 13.4 333 13.3
2010-06-03 06:34:25 51°16.138 2°53.276 332.5 13.4 333 13.4
2010-06-03 06:34:30 51°16.155 2°53.263 332.5 13.5 334 13.2
2010-06-03 06:34:35 51°16.171 2°53.25 333 13.4 334 13.3
2010-06-03 06:34:40 51°16.188 2°53.236 333.2 13.4 333 13.4
2010-06-03 06:34:45 51°16.205 2°53.224 333.2 13.4 335 13.3
2010-06-03 06:34:50 51°16.221 2°53.21 333.2 13.3 333 13.4
2010-06-03 06:34:55 51°16.238 2°53.197 332.8 13.3 334 13.3
2010-06-03 06:35:00 51°16.254 2°53.184 332.4 13.3 333 13.5
2010-06-03 06:35:05 51°16.271 2°53.17 332.7 13.4 333 13.4
2010-06-03 06:35:10 51°16.287 2°53.158 333.1 13.4 335 13.4
2010-06-03 06:35:15 51°16.304 2°53.144 332.8 13.4 333 13.4
2010-06-03 06:35:20 51°16.321 2°53.131 332.7 13.5 334 13.5
2010-06-03 06:35:25 51°16.337 2°53.117 332.3 13.4 332 13.5
2010-06-03 06:35:30 51°16.354 2°53.104 332.5 13.5 333 13.3
2010-06-03 06:35:35 51°16.371 2°53.091 332.1 13.4 333 13.4
2010-06-03 06:35:40 51°16.387 2°53.077 332 13.5 333 13.3
2010-06-03 06:35:45 51°16.404 2°53.064 332.4 13.5 334 13.4
2010-06-03 06:35:50 51°16.42 2°53.05 332.6 13.5 333 13.3
2010-06-03 06:35:55 51°16.437 2°53.037 332.5 13.5 333 13.2
2010-06-03 06:36:00 51°16.454 2°53.024 332.5 13.5 333 13.3
2010-06-03 06:36:05 51°16.471 2°53.011 332.7 13.5 335 13.3
2010-06-03 06:36:10 51°16.487 2°52.997 332.9 13.5 333 13.2
2010-06-03 06:36:15 51°16.504 2°52.984 332.9 13.5 334 13.1
2010-06-03 06:36:20 51°16.521 2°52.97 332.8 13.5 333 13
2010-06-03 06:36:25 51°16.537 2°52.956 332.5 13.5 333 13.2
2010-06-03 06:36:30 51°16.554 2°52.942 331.9 13.5 332 13.1
2010-06-03 06:36:35 51°16.571 2°52.929 332.5 13.5 333 13
2010-06-03 06:36:40 51°16.587 2°52.915 332.5 13.5 332 12.9
2010-06-03 06:36:45 51°16.604 2°52.902 332.6 13.5 333 12.8
2010-06-03 06:36:50 51°16.621 2°52.889 332.5 13.5 333 12.6
2010-06-03 06:36:55 51°16.638 2°52.875 332.2 13.5 333 12.4
2010-06-03 06:37:00 51°16.654 2°52.861 332.4 13.5 333 12.6
2010-06-03 06:37:05 51°16.671 2°52.847 332.2 13.5 332 12.5
2010-06-03 06:37:10 51°16.688 2°52.834 332.2 13.5 333 12.3
2010-06-03 06:37:15 51°16.704 2°52.82 331.9 13.6 332 12.3
2010-06-03 06:37:20 51°16.721 2°52.806 332.3 13.6 333 12.2
2010-06-03 06:37:25 51°16.737 2°52.792 331.9 13.5 333 11.9
2010-06-03 06:37:30 51°16.754 2°52.778 332.1 13.5 332 11.6
2010-06-03 06:37:35 51°16.771 2°52.765 332.4 13.6 333 11.3
2010-06-03 06:37:40 51°16.788 2°52.752 332.7 13.5 334 11.1
2010-06-03 06:37:45 51°16.805 2°52.739 333.6 13.6 335 11.2
2010-06-03 06:37:50 51°16.822 2°52.727 334.2 13.6 337 11.1
2010-06-03 06:37:55 51°16.839 2°52.714 334.8 13.6 334 11
2010-06-03 06:38:00 51°16.857 2°52.702 335.5 13.7 337 10.8
2010-06-03 06:38:05 51°16.874 2°52.69 335.9 13.7 336 10.9
2010-06-03 06:38:10 51°16.891 2°52.678 336.3 13.7 337 11
2010-06-03 06:38:15 51°16.909 2°52.666 336.5 13.7 337 10.8
2010-06-03 06:38:20 51°16.926 2°52.655 336.5 13.7 338 11.3
2010-06-03 06:38:25 51°16.944 2°52.643 336.7 13.7 338 11.2
2010-06-03 06:38:30 51°16.961 2°52.631 336.9 13.7 337 11.2
2010-06-03 06:38:35 51°16.979 2°52.619 337.1 13.8 337 11.2
2010-06-03 06:38:40 51°16.997 2°52.608 336.8 13.8 337 11.4
2010-06-03 06:38:45 51°17.014 2°52.596 336.3 13.8 338 11.4
2010-06-03 06:38:50 51°17.032 2°52.585 336.6 13.6 338 11.3
2010-06-03 06:38:55 51°17.05 2°52.577 339.8 13.8 345 11.2
2010-06-03 06:39:00 51°17.069 2°52.568 342.3 13.7 343 11.1
2010-06-03 06:39:05 51°17.087 2°52.561 344.2 13.8 347 11.1
2010-06-03 06:39:10 51°17.106 2°52.554 345.7 13.7 346 11
2010-06-03 06:39:15 51°17.124 2°52.549 347.4 13.7 349 11.2
2010-06-03 06:39:20 51°17.143 2°52.543 348.9 13.8 349 11.1
2010-06-03 06:39:25 51°17.162 2°52.538 349.6 13.8 350 11.3
2010-06-03 06:39:30 51°17.181 2°52.533 350.3 13.8 350 11.1
2010-06-03 06:39:35 51°17.2 2°52.528 351 13.9 352 11.3
2010-06-03 06:39:40 51°17.219 2°52.524 351.9 13.8 352 11.4
2010-06-03 06:39:45 51°17.238 2°52.519 352 13.9 351 11.4
2010-06-03 06:39:50 51°17.257 2°52.515 352.1 13.9 352 11.6
2010-06-03 06:39:55 51°17.276 2°52.51 352.4 13.9 352 11.6
2010-06-03 06:40:00 51°17.295 2°52.506 352.1 13.9 351 11.5
2010-06-03 06:40:05 51°17.314 2°52.501 351.9 13.8 351 11.4
2010-06-03 06:40:10 51°17.333 2°52.496 351.9 13.8 351 11.7
2010-06-03 06:40:15 51°17.352 2°52.491 352 13.8 352 11.5
2010-06-03 06:40:20 51°17.371 2°52.487 352.9 13.8 353 11.8
2010-06-03 06:40:25 51°17.39 2°52.484 353.8 13.8 353 11.6
2010-06-03 06:40:30 51°17.409 2°52.481 354.8 13.8 355 11.7
2010-06-03 06:40:35 51°17.428 2°52.478 355.3 13.7 355 11.7
2010-06-03 06:40:40 51°17.446 2°52.476 355.9 13.7 355 11.7
2010-06-03 06:40:45 51°17.466 2°52.473 356.3 13.8 355 11.7
2010-06-03 06:40:50 51°17.484 2°52.47 356.4 13.7 355 11.7
2010-06-03 06:40:55 51°17.503 2°52.468 356.5 13.7 355 11.8
2010-06-03 06:41:00 51°17.522 2°52.465 356.2 13.7 355 11.8
2010-06-03 06:41:05 51°17.541 2°52.462 355.9 13.7 355 11.8
2010-06-03 06:41:10 51°17.56 2°52.459 355.8 13.7 355 11.6
2010-06-03 06:41:15 51°17.579 2°52.456 355.7 13.7 354 11.9
2010-06-03 06:41:20 51°17.598 2°52.453 355.6 13.7 355 11.7
2010-06-03 06:41:25 51°17.617 2°52.451 356.2 13.7 357 11.8
2010-06-03 06:41:30 51°17.636 2°52.45 358 13.6 357 11.8
2010-06-03 06:41:35 51°17.654 2°52.449 358.6 13.6 358 11.5
2010-06-03 06:41:40 51°17.673 2°52.449 359.9 13.7 -999 11.8
2010-06-03 06:41:45 51°17.693 2°52.448 0.3 13.7 358 11.9
2010-06-03 06:41:50 51°17.712 2°52.449 1.5 13.7 1 11.5
2010-06-03 06:41:55 51°17.73 2°52.449 1.2 13.7 359 11.7
2010-06-03 06:42:00 51°17.75 2°52.45 1.3 13.8 2 11.5
2010-06-03 06:42:05 51°17.769 2°52.45 1.9 13.8 -999 11.6
2010-06-03 06:42:10 51°17.788 2°52.451 2.2 13.7 1 11.9
2010-06-03 06:42:15 51°17.807 2°52.45 2 13.7 359 11.7
2010-06-03 06:42:20 51°17.826 2°52.451 1.5 13.8 1 11.8
2010-06-03 06:42:25 51°17.845 2°52.451 1.7 13.8 -999 11.8
2010-06-03 06:42:30 51°17.864 2°52.451 1.5 13.8 1 11.9
2010-06-03 06:42:35 51°17.883 2°52.451 1.5 13.8 -999 12
2010-06-03 06:42:40 51°17.902 2°52.452 1.5 13.8 1 11.7
2010-06-03 06:42:45 51°17.922 2°52.452 1.5 13.8 1 11.8
2010-06-03 06:42:50 51°17.941 2°52.452 1.7 13.8 -999 11.9
2010-06-03 06:42:55 51°17.96 2°52.455 3.3 13.8 3 12
2010-06-03 06:43:00 51°17.979 2°52.456 3.8 13.7 3 12
2010-06-03 06:43:05 51°17.998 2°52.459 5.2 13.8 6 11.8
2010-06-03 06:43:10 51°18.017 2°52.46 5.3 13.8 3 11.9
2010-06-03 06:43:15 51°18.036 2°52.464 5.9 13.7 6 12.1
2010-06-03 06:43:20 51°18.055 2°52.466 6 13.7 3 12
2010-06-03 06:43:25 51°18.074 2°52.469 6.2 13.8 6 12
2010-06-03 06:43:30 51°18.093 2°52.471 6.6 13.8 5 12
2010-06-03 06:43:35 51°18.112 2°52.474 6.6 13.8 5 12
2010-06-03 06:43:40 51°18.131 2°52.477 6.6 13.8 5 12.1
2010-06-03 06:43:45 51°18.15 2°52.48 6.6 13.8 5 12
2010-06-03 06:43:50 51°18.169 2°52.482 6.3 13.8 5 12.2
2010-06-03 06:43:55 51°18.188 2°52.485 6.3 13.8 6 12.2
2010-06-03 06:44:00 51°18.207 2°52.487 6.4 13.8 4 12.2
2010-06-03 06:44:05 51°18.226 2°52.49 5.9 13.8 5 12.1
2010-06-03 06:44:10 51°18.245 2°52.493 5.9 13.8 5 12.2
2010-06-03 06:44:15 51°18.264 2°52.495 6.2 13.8 5 12.2
2010-06-03 06:44:20 51°18.283 2°52.498 6.2 13.8 5 12.4
2010-06-03 06:44:25 51°18.302 2°52.5 5.9 13.8 4 12.3
2010-06-03 06:44:30 51°18.321 2°52.503 6 13.8 5 12.2
2010-06-03 06:44:35 51°18.341 2°52.505 6.1 13.8 4 12.5
2010-06-03 06:44:40 51°18.36 2°52.508 5.8 13.8 5 12.4
2010-06-03 06:44:45 51°18.379 2°52.51 5.9 13.8 5 12.5
2010-06-03 06:44:50 51°18.398 2°52.513 6 13.8 5 12.5
2010-06-03 06:44:55 51°18.417 2°52.515 6.1 13.8 5 12.5
2010-06-03 06:45:00 51°18.436 2°52.518 6.1 13.7 5 12.4
2010-06-03 06:45:05 51°18.455 2°52.521 5.9 13.8 5 12.5
2010-06-03 06:45:10 51°18.474 2°52.523 5.8 13.8 5 12.6
2010-06-03 06:45:15 51°18.493 2°52.526 5.8 13.8 5 12.6
2010-06-03 06:45:20 51°18.512 2°52.528 5.9 13.8 5 12.9
2010-06-03 06:45:25 51°18.531 2°52.531 5.8 13.8 5 12.7
2010-06-03 06:45:30 51°18.55 2°52.533 6 13.8 5 12.8
2010-06-03 06:45:35 51°18.569 2°52.536 5.7 13.8 5 12.9
2010-06-03 06:45:40 51°18.588 2°52.538 5.7 13.8 5 12.7
2010-06-03 06:45:45 51°18.607 2°52.54 5.6 13.8 4 13
2010-06-03 06:45:50 51°18.626 2°52.543 5.5 13.8 4 12.8
2010-06-03 06:45:55 51°18.645 2°52.545 5.4 13.8 5 13
2010-06-03 06:46:00 51°18.664 2°52.548 5.7 13.8 5 13
2010-06-03 06:46:05 51°18.684 2°52.551 5.8 13.8 5 13.1
2010-06-03 06:46:10 51°18.703 2°52.553 5.6 13.9 5 13.1
2010-06-03 06:46:15 51°18.722 2°52.556 5.6 13.8 5 13.1
2010-06-03 06:46:20 51°18.741 2°52.558 5.6 13.8 5 13.1
2010-06-03 06:46:25 51°18.76 2°52.561 5.6 13.8 5 13.3
2010-06-03 06:46:30 51°18.779 2°52.564 5.8 13.8 5 13.2
2010-06-03 06:46:35 51°18.798 2°52.566 6 13.7 5 13.4
2010-06-03 06:46:40 51°18.817 2°52.569 5.8 13.7 5 13.6
2010-06-03 06:46:45 51°18.836 2°52.571 5.8 13.7 5 13.5
2010-06-03 06:46:50 51°18.855 2°52.573 5.4 13.7 4 13.5
2010-06-03 06:46:55 51°18.873 2°52.576 5.3 13.7 5 13.6
2010-06-03 06:47:00 51°18.892 2°52.578 5.5 13.6 4 13.8
2010-06-03 06:47:05 51°18.912 2°52.579 5.2 13.7 3 13.7
2010-06-03 06:47:10 51°18.93 2°52.581 4.7 13.6 4 13.8
2010-06-03 06:47:15 51°18.949 2°52.583 5.2 13.6 3 13.8
2010-06-03 06:47:20 51°18.968 2°52.585 5.4 13.6 4 14.1
2010-06-03 06:47:25 51°18.987 2°52.587 5.7 13.6 4 14
2010-06-03 06:47:30 51°19.005 2°52.588 5.8 13.5 3 14
2010-06-03 06:47:35 51°19.024 2°52.59 5.3 13.6 4 14.2
2010-06-03 06:47:40 51°19.043 2°52.592 5.4 13.6 3 14.4
2010-06-03 06:47:45 51°19.062 2°52.593 5.2 13.6 3 14.3
2010-06-03 06:47:50 51°19.081 2°52.595 5.3 13.6 4 14.4
2010-06-03 06:47:55 51°19.099 2°52.598 5.8 13.6 4 14.6
2010-06-03 06:48:00 51°19.118 2°52.6 6 13.6 4 14.7
2010-06-03 06:48:05 51°19.137 2°52.602 5.9 13.6 4 14.8
2010-06-03 06:48:10 51°19.156 2°52.603 5.6 13.6 3 14.8
2010-06-03 06:48:15 51°19.175 2°52.605 5.4 13.6 4 14.8
2010-06-03 06:48:20 51°19.194 2°52.607 5.4 13.6 3 14.9
2010-06-03 06:48:25 51°19.212 2°52.609 5.3 13.7 3 14.9
2010-06-03 06:48:30 51°19.231 2°52.61 5.4 13.6 3 15.2
2010-06-03 06:48:35 51°19.25 2°52.612 5.3 13.7 3 15.2
2010-06-03 06:48:40 51°19.269 2°52.614 5.2 13.7 4 15.3
2010-06-03 06:48:45 51°19.288 2°52.616 5.4 13.7 4 15.3
2010-06-03 06:48:50 51°19.307 2°52.617 5.7 13.7 4 15.4
2010-06-03 06:48:55 51°19.326 2°52.619 5.6 13.7 3 15.6
2010-06-03 06:49:00 51°19.345 2°52.621 5.7 13.7 4 15.7
2010-06-03 06:49:05 51°19.364 2°52.623 5.9 13.8 4 15.6
2010-06-03 06:49:10 51°19.383 2°52.625 5.9 13.7 4 16
2010-06-03 06:49:15 51°19.402 2°52.627 5.6 13.7 3 15.7
2010-06-03 06:49:20 51°19.421 2°52.629 5.6 13.7 4 15.8
2010-06-03 06:49:25 51°19.44 2°52.63 5.5 13.7 3 15.8
2010-06-03 06:49:30 51°19.459 2°52.632 5.3 13.7 4 16
2010-06-03 06:49:35 51°19.478 2°52.634 5.6 13.6 3 16
2010-06-03 06:49:40 51°19.497 2°52.635 5.3 13.7 3 16.3
2010-06-03 06:49:45 51°19.516 2°52.637 5.3 13.7 4 16.3
2010-06-03 06:49:50 51°19.535 2°52.639 5.5 13.7 3 16.4
2010-06-03 06:49:55 51°19.554 2°52.641 5.5 13.7 3 16.6
2010-06-03 06:50:00 51°19.573 2°52.643 5.7 13.7 3 16.5
2010-06-03 06:50:05 51°19.591 2°52.644 5.7 13.7 4 16.5
2010-06-03 06:50:10 51°19.611 2°52.646 5.2 13.7 3 16.6
2010-06-03 06:50:15 51°19.629 2°52.648 5.4 13.7 4 16.5
2010-06-03 06:50:20 51°19.648 2°52.649 5.5 13.7 3 16.7
2010-06-03 06:50:25 51°19.667 2°52.652 5.2 13.7 4 16.5
2010-06-03 06:50:30 51°19.686 2°52.653 5.4 13.7 3 16.6
2010-06-03 06:50:35 51°19.705 2°52.655 5.1 13.7 4 16.8
2010-06-03 06:50:40 51°19.724 2°52.656 5 13.6 3 16.9
2010-06-03 06:50:45 51°19.743 2°52.659 4.9 13.7 4 17.1
2010-06-03 06:50:50 51°19.762 2°52.661 5.6 13.7 5 16.9
2010-06-03 06:50:55 51°19.781 2°52.663 5.6 13.7 4 17
2010-06-03 06:51:00 51°19.8 2°52.665 5.6 13.6 4 17
2010-06-03 06:51:05 51°19.819 2°52.667 5.5 13.7 3 17.2
2010-06-03 06:51:10 51°19.837 2°52.669 5.2 13.6 4 17.1
2010-06-03 06:51:15 51°19.856 2°52.671 5.4 13.6 3 17.2
2010-06-03 06:51:20 51°19.875 2°52.673 5.2 13.6 3 17.3
2010-06-03 06:51:25 51°19.894 2°52.675 5.2 13.6 4 17.3
2010-06-03 06:51:30 51°19.913 2°52.677 5.2 13.6 4 17.3
2010-06-03 06:51:35 51°19.932 2°52.679 5.4 13.6 4 17.5
2010-06-03 06:51:40 51°19.95 2°52.681 5.5 13.6 4 17.4
2010-06-03 06:51:45 51°19.969 2°52.684 5.7 13.6 4 17.3
2010-06-03 06:51:50 51°19.988 2°52.686 5.6 13.6 5 17.3
2010-06-03 06:51:55 51°20.007 2°52.688 5.8 13.5 4 17.2
2010-06-03 06:52:00 51°20.025 2°52.69 5.3 13.5 4 17.4
2010-06-03 06:52:05 51°20.044 2°52.692 5.2 13.5 4 17.4
2010-06-03 06:52:10 51°20.063 2°52.695 5.2 13.5 5 17.5
2010-06-03 06:52:15 51°20.081 2°52.697 5.3 13.5 4 17.3
2010-06-03 06:52:20 51°20.1 2°52.702 7.3 13.5 8 17.4
2010-06-03 06:52:25 51°20.118 2°52.708 11 13.5 11 17.6
2010-06-03 06:52:30 51°20.136 2°52.714 12.6 13.4 13 17.4
2010-06-03 06:52:35 51°20.154 2°52.723 15.4 13.5 16 17.5
2010-06-03 06:52:40 51°20.172 2°52.731 16.4 13.5 14 17.4
2010-06-03 06:52:45 51°20.19 2°52.74 18.3 13.5 18 17.4
2010-06-03 06:52:50 51°20.208 2°52.748 19.4 13.5 17 17.6
2010-06-03 06:52:55 51°20.226 2°52.759 20.3 13.6 20 17.4
2010-06-03 06:53:00 51°20.244 2°52.768 21.1 13.6 18 17.5
2010-06-03 06:53:05 51°20.261 2°52.78 22.3 13.6 22 17.6
2010-06-03 06:53:10 51°20.279 2°52.79 22.5 13.7 20 17.5
2010-06-03 06:53:15 51°20.297 2°52.801 22.8 13.7 22 17.5
2010-06-03 06:53:20 51°20.314 2°52.812 23.3 13.7 21 17.5
2010-06-03 06:53:25 51°20.332 2°52.823 23.4 13.7 22 17.7
2010-06-03 06:53:30 51°20.35 2°52.834 23.7 13.7 21 17.4
2010-06-03 06:53:35 51°20.367 2°52.845 23.5 13.7 22 17.5
2010-06-03 06:53:40 51°20.385 2°52.856 23.5 13.7 21 17.5
2010-06-03 06:53:45 51°20.403 2°52.867 23.3 13.7 21 17.4
2010-06-03 06:53:50 51°20.421 2°52.878 23.2 13.7 21 17.6
2010-06-03 06:53:55 51°20.438 2°52.89 23.3 13.8 22 17.5
2010-06-03 06:54:00 51°20.456 2°52.9 23.3 13.8 21 17.3
2010-06-03 06:54:05 51°20.474 2°52.911 23 13.8 21 17.5
2010-06-03 06:54:10 51°20.492 2°52.922 23 13.8 21 17.4
2010-06-03 06:54:15 51°20.51 2°52.933 22.7 13.8 21 17.5
2010-06-03 06:54:20 51°20.528 2°52.943 22.3 13.9 20 17.5
2010-06-03 06:54:25 51°20.546 2°52.954 22.2 13.8 21 17.4
2010-06-03 06:54:30 51°20.564 2°52.964 22.2 13.8 20 17.4
2010-06-03 06:54:35 51°20.582 2°52.976 22.1 13.8 21 17.8
2010-06-03 06:54:40 51°20.6 2°52.986 22.2 13.8 20 17.4
2010-06-03 06:54:45 51°20.618 2°52.997 22.2 13.8 21 17.5
2010-06-03 06:54:50 51°20.636 2°53.007 22.3 13.8 20 17.4
2010-06-03 06:54:55 51°20.654 2°53.018 22.3 13.8 20 17.5
2010-06-03 06:55:00 51°20.672 2°53.028 22.3 13.8 21 17.6
2010-06-03 06:55:05 51°20.69 2°53.039 22.3 13.8 20 17.6
2010-06-03 06:55:10 51°20.708 2°53.05 22.3 13.8 21 17.7
2010-06-03 06:55:15 51°20.726 2°53.06 22.3 13.8 20 17.6
2010-06-03 06:55:20 51°20.743 2°53.071 22 13.8 20 17.5
2010-06-03 06:55:25 51°20.761 2°53.081 21.9 13.8 20 17.7
2010-06-03 06:55:30 51°20.779 2°53.091 21.9 13.8 20 17.7
2010-06-03 06:55:35 51°20.797 2°53.102 22.1 13.8 20 17.5
2010-06-03 06:55:40 51°20.815 2°53.112 22 13.8 20 17.3
2010-06-03 06:55:45 51°20.833 2°53.122 21.8 13.8 19 17.5
2010-06-03 06:55:50 51°20.851 2°53.133 21.7 13.8 20 17.5
2010-06-03 06:55:55 51°20.869 2°53.143 21.9 13.8 20 17.4
2010-06-03 06:56:00 51°20.887 2°53.154 21.9 13.8 20 17.5
2010-06-03 06:56:05 51°20.905 2°53.164 21.9 13.8 20 17.4
2010-06-03 06:56:10 51°20.923 2°53.174 21.9 13.7 20 17.2
2010-06-03 06:56:15 51°20.941 2°53.185 21.9 13.7 20 17.4
2010-06-03 06:56:20 51°20.959 2°53.195 22 13.7 20 17.5
2010-06-03 06:56:25 51°20.977 2°53.206 21.9 13.7 20 17.4
2010-06-03 06:56:30 51°20.995 2°53.216 21.9 13.7 20 17.3
2010-06-03 06:56:35 51°21.013 2°53.226 21.6 13.7 20 17.3
2010-06-03 06:56:40 51°21.031 2°53.237 21.9 13.7 21 17.4
2010-06-03 06:56:45 51°21.049 2°53.247 21.9 13.8 19 17.4
2010-06-03 06:56:50 51°21.066 2°53.258 21.7 13.7 20 17.3
2010-06-03 06:56:55 51°21.084 2°53.267 21.6 13.7 19 17.1
2010-06-03 06:57:00 51°21.102 2°53.278 21.5 13.7 20 17.2
2010-06-03 06:57:05 51°21.12 2°53.288 21.5 13.7 19 17.1
2010-06-03 06:57:10 51°21.138 2°53.298 21.3 13.7 19 17.2
2010-06-03 06:57:15 51°21.156 2°53.307 20.9 13.7 19 17.4
2010-06-03 06:57:20 51°21.174 2°53.318 21.3 13.7 20 17.1
2010-06-03 06:57:25 51°21.192 2°53.328 21.4 13.7 19 17
2010-06-03 06:57:30 51°21.21 2°53.337 21.5 13.6 19 17
2010-06-03 06:57:35 51°21.228 2°53.346 20.8 13.6 17 17
2010-06-03 06:57:40 51°21.246 2°53.355 19 13.6 16 16.4
2010-06-03 06:57:45 51°21.264 2°53.363 18.4 13.6 17 17
2010-06-03 06:57:50 51°21.282 2°53.371 17.2 13.7 14 17.3
2010-06-03 06:57:55 51°21.301 2°53.378 17 13.6 14 17.1
2010-06-03 06:58:00 51°21.319 2°53.385 16.1 13.6 13 17.2
2010-06-03 06:58:05 51°21.337 2°53.393 15.6 13.6 15 17.1
2010-06-03 06:58:10 51°21.356 2°53.4 15.3 13.7 13 17.1
2010-06-03 06:58:15 51°21.374 2°53.407 15.1 13.7 14 17
2010-06-03 06:58:20 51°21.393 2°53.414 15 13.6 13 17.2
2010-06-03 06:58:25 51°21.411 2°53.42 14.8 13.6 13 17
2010-06-03 06:58:30 51°21.43 2°53.427 14.7 13.7 13 17.2
2010-06-03 06:58:35 51°21.448 2°53.434 14.5 13.7 13 17.5
2010-06-03 06:58:40 51°21.467 2°53.441 14.6 13.7 13 17.4
2010-06-03 06:58:45 51°21.485 2°53.448 14.9 13.7 13 17.3
2010-06-03 06:58:50 51°21.504 2°53.455 14.8 13.7 13 17.7
2010-06-03 06:58:55 51°21.522 2°53.462 14.7 13.7 14 17.6
2010-06-03 06:59:00 51°21.54 2°53.469 14.7 13.7 13 17.4
2010-06-03 06:59:05 51°21.559 2°53.475 14.6 13.7 13 17.5
2010-06-03 06:59:10 51°21.577 2°53.482 14.8 13.7 13 17.6
2010-06-03 06:59:15 51°21.596 2°53.489 14.7 13.7 13 17.5
2010-06-03 06:59:20 51°21.614 2°53.496 14.6 13.7 13 17.5
2010-06-03 06:59:25 51°21.633 2°53.503 14.7 13.7 13 17.8
2010-06-03 06:59:30 51°21.651 2°53.51 15 13.7 14 17.9
2010-06-03 06:59:35 51°21.67 2°53.518 15.2 13.7 14 17.9
2010-06-03 06:59:40 51°21.688 2°53.526 15.3 13.7 14 18.1
2010-06-03 06:59:45 51°21.706 2°53.534 15.6 13.7 15 18.1
2010-06-03 06:59:50 51°21.725 2°53.541 15.8 13.7 15 18.3
2010-06-03 06:59:55 51°21.743 2°53.549 15.6 13.7 15 18.5
2010-06-03 07:00:00 51°21.762 2°53.557 15.3 13.7 15 18.7
2010-06-03 07:00:05 51°21.78 2°53.564 15.5 13.7 14 18.6
2010-06-03 07:00:10 51°21.799 2°53.572 15.2 13.7 14 19
2010-06-03 07:00:15 51°21.817 2°53.579 14.8 13.7 14 19.1
2010-06-03 07:00:20 51°21.836 2°53.586 14.8 13.7 14 19.4
2010-06-03 07:00:25 51°21.854 2°53.594 14.8 13.8 14 19.5
2010-06-03 07:00:30 51°21.873 2°53.602 15 13.8 14 19.7
2010-06-03 07:00:35 51°21.891 2°53.609 15.2 13.8 14 19.8
2010-06-03 07:00:40 51°21.909 2°53.617 15.1 13.7 15 19.7
2010-06-03 07:00:45 51°21.928 2°53.625 15.1 13.7 14 20
2010-06-03 07:00:50 51°21.946 2°53.632 15.1 13.7 14 20.1
2010-06-03 07:00:55 51°21.965 2°53.64 14.8 13.7 14 20
2010-06-03 07:01:00 51°21.983 2°53.647 15 13.7 14 20.1
2010-06-03 07:01:05 51°22.002 2°53.655 15.3 13.7 14 20.1
2010-06-03 07:01:10 51°22.02 2°53.663 15.3 13.8 15 20.3
2010-06-03 07:01:15 51°22.039 2°53.67 15.3 13.8 14 20.3
2010-06-03 07:01:20 51°22.057 2°53.679 15.3 13.8 15 20.4
2010-06-03 07:01:25 51°22.076 2°53.686 15.5 13.7 15 20.3
2010-06-03 07:01:30 51°22.094 2°53.694 15.6 13.8 15 20.6
2010-06-03 07:01:35 51°22.113 2°53.701 15.6 13.7 14 20.4
2010-06-03 07:01:40 51°22.131 2°53.709 15.3 13.8 14 20.6
2010-06-03 07:01:45 51°22.149 2°53.717 15.3 13.7 14 20.8
2010-06-03 07:01:50 51°22.168 2°53.724 14.9 13.8 13 21
2010-06-03 07:01:55 51°22.187 2°53.731 14.7 13.8 14 21.1
2010-06-03 07:02:00 51°22.205 2°53.737 14.6 13.8 14 21.2
2010-06-03 07:02:05 51°22.223 2°53.745 14.7 13.8 14 21.3
2010-06-03 07:02:10 51°22.242 2°53.752 14.8 13.8 14 21.5
2010-06-03 07:02:15 51°22.26 2°53.761 15.2 13.8 14 21.7
2010-06-03 07:02:20 51°22.279 2°53.769 15.3 13.8 15 21.8
2010-06-03 07:02:25 51°22.298 2°53.777 15.3 13.8 14 22
2010-06-03 07:02:30 51°22.316 2°53.784 15 13.8 14 22.2
2010-06-03 07:02:35 51°22.335 2°53.791 15.1 13.8 14 22.3
2010-06-03 07:02:40 51°22.353 2°53.798 15.2 13.8 14 22.5
2010-06-03 07:02:45 51°22.372 2°53.806 15.3 13.8 15 22.7
2010-06-03 07:02:50 51°22.39 2°53.814 15.5 13.8 15 22.7
2010-06-03 07:02:55 51°22.409 2°53.822 15.6 13.8 14 22.9
2010-06-03 07:03:00 51°22.428 2°53.83 15.5 13.8 14 23.1
2010-06-03 07:03:05 51°22.446 2°53.838 15.4 13.8 14 23.1
2010-06-03 07:03:10 51°22.465 2°53.846 15.3 13.8 14 23.4
2010-06-03 07:03:15 51°22.483 2°53.854 15.3 13.8 14 23.5
2010-06-03 07:03:20 51°22.502 2°53.861 15.3 13.8 14 23.6
2010-06-03 07:03:25 51°22.521 2°53.868 15.4 13.8 15 23.5
2010-06-03 07:03:30 51°22.539 2°53.875 15.5 13.8 14 24.3
2010-06-03 07:03:35 51°22.558 2°53.883 15.5 13.8 15 24.2
2010-06-03 07:03:40 51°22.576 2°53.891 15.6 13.8 14 24
2010-06-03 07:03:45 51°22.595 2°53.898 15.8 13.8 15 24.4
2010-06-03 07:03:50 51°22.613 2°53.906 15.6 13.8 14 24.2
2010-06-03 07:03:55 51°22.632 2°53.914 15.8 13.8 15 23.7
2010-06-03 07:04:00 51°22.65 2°53.921 15.3 13.8 14 24.1
2010-06-03 07:04:05 51°22.669 2°53.929 15.1 13.8 14 23.8
2010-06-03 07:04:10 51°22.687 2°53.936 14.8 13.8 13 23.4
2010-06-03 07:04:15 51°22.706 2°53.944 15 13.8 14 23.5
2010-06-03 07:04:20 51°22.725 2°53.951 15.1 13.8 14 23.7
2010-06-03 07:04:25 51°22.743 2°53.958 15.1 13.8 14 23.7
2010-06-03 07:04:30 51°22.762 2°53.966 15.1 13.9 14 23.7
2010-06-03 07:04:35 51°22.78 2°53.973 15.3 13.8 14 23.5
2010-06-03 07:04:40 51°22.799 2°53.98 15.2 13.8 13 23.9
2010-06-03 07:04:45 51°22.818 2°53.988 14.9 13.9 14 23.5
2010-06-03 07:04:50 51°22.837 2°53.995 15 13.9 14 23.1
2010-06-03 07:04:55 51°22.855 2°54.003 15.1 13.9 14 23.2
2010-06-03 07:05:00 51°22.874 2°54.01 15 13.8 14 22.8
2010-06-03 07:05:05 51°22.892 2°54.017 15 13.9 14 22
2010-06-03 07:05:10 51°22.911 2°54.025 14.9 13.9 14 18.7
2010-06-03 07:05:15 51°22.93 2°54.032 15.2 13.9 14 20.5
2010-06-03 07:05:20 51°22.949 2°54.04 15.2 14 14 23
2010-06-03 07:05:25 51°22.967 2°54.047 15.1 14 14 22.9
2010-06-03 07:05:30 51°22.986 2°54.055 14.9 14 14 22.9
2010-06-03 07:05:35 51°23.005 2°54.063 15.3 14 15 22.3
2010-06-03 07:05:40 51°23.024 2°54.07 15.1 14 14 22.2
2010-06-03 07:05:45 51°23.042 2°54.078 15.2 14 15 22.6
2010-06-03 07:05:50 51°23.061 2°54.085 15.4 14 14 23.3
2010-06-03 07:05:55 51°23.08 2°54.092 15.2 14 14 22.8
2010-06-03 07:06:00 51°23.099 2°54.1 15.1 14 14 22.6
2010-06-03 07:06:05 51°23.118 2°54.108 15.2 14 14 22.7
2010-06-03 07:06:10 51°23.137 2°54.115 15.2 14 14 19.8
2010-06-03 07:06:15 51°23.156 2°54.123 15 14 14 22.8
2010-06-03 07:06:20 51°23.174 2°54.131 15.2 14 14 22.5
2010-06-03 07:06:25 51°23.193 2°54.138 15.1 14 14 21.5
2010-06-03 07:06:30 51°23.212 2°54.146 14.8 14.1 14 21.8
2010-06-03 07:06:35 51°23.231 2°54.152 14.5 14 11 21.4
2010-06-03 07:06:40 51°23.25 2°54.157 12.5 14 11 21.1
2010-06-03 07:06:45 51°23.27 2°54.163 12 14 11 19.1
2010-06-03 07:06:50 51°23.289 2°54.168 11 14 9 21.3
2010-06-03 07:06:55 51°23.308 2°54.173 10.7 14 9 21
2010-06-03 07:07:00 51°23.327 2°54.177 9.7 14 8 20.8
2010-06-03 07:07:05 51°23.346 2°54.182 9.5 14 9 20.1
2010-06-03 07:07:10 51°23.366 2°54.186 9 14 7 20.4
2010-06-03 07:07:15 51°23.385 2°54.191 8.6 14 8 21.1
2010-06-03 07:07:20 51°23.404 2°54.195 8.5 14 8 21.1
2010-06-03 07:07:25 51°23.423 2°54.199 8.5 14 8 20.5
2010-06-03 07:07:30 51°23.442 2°54.204 8.7 14 8 20.6
2010-06-03 07:07:35 51°23.461 2°54.208 8.8 14 8 20.9
2010-06-03 07:07:40 51°23.481 2°54.213 9 14 9 21.1
2010-06-03 07:07:45 51°23.5 2°54.217 8.8 14 8 20.9
2010-06-03 07:07:50 51°23.519 2°54.222 8.7 14 8 19.9
2010-06-03 07:07:55 51°23.538 2°54.225 8.6 14 8 21.6
2010-06-03 07:08:00 51°23.558 2°54.23 8.4 14 8 21.2
2010-06-03 07:08:05 51°23.577 2°54.234 8.3 13.9 8 21
2010-06-03 07:08:10 51°23.596 2°54.238 8.3 13.9 8 20.7
2010-06-03 07:08:15 51°23.615 2°54.242 8.3 13.9 7 21.5
2010-06-03 07:08:20 51°23.634 2°54.246 8.1 13.9 8 21.1
2010-06-03 07:08:25 51°23.653 2°54.251 8.5 14 8 21.6
2010-06-03 07:08:30 51°23.673 2°54.255 8.8 14 9 21.8
2010-06-03 07:08:35 51°23.692 2°54.259 9 14 8 21.5
2010-06-03 07:08:40 51°23.711 2°54.264 8.8 14 8 21.1
2010-06-03 07:08:45 51°23.73 2°54.269 8.8 14 8 21.5
2010-06-03 07:08:50 51°23.749 2°54.273 8.9 14 9 20.8
2010-06-03 07:08:55 51°23.768 2°54.278 9.1 14 9 21.4
2010-06-03 07:09:00 51°23.787 2°54.283 9.2 14 9 21.8
2010-06-03 07:09:05 51°23.807 2°54.287 9.4 14 8 22
2010-06-03 07:09:10 51°23.826 2°54.292 9.5 14 9 22.1
2010-06-03 07:09:15 51°23.845 2°54.296 9.2 14 8 21.3
2010-06-03 07:09:20 51°23.864 2°54.301 9.3 14 9 21.5
2010-06-03 07:09:25 51°23.884 2°54.305 9 14 8 22.1
2010-06-03 07:09:30 51°23.903 2°54.31 9 14 9 21.9
2010-06-03 07:09:35 51°23.922 2°54.314 9 14 8 21.9
2010-06-03 07:09:40 51°23.941 2°54.318 8.9 14 8 21.7
2010-06-03 07:09:45 51°23.961 2°54.322 8.7 14 8 21.4
2010-06-03 07:09:50 51°23.98 2°54.326 8.4 14 8 21.2
2010-06-03 07:09:55 51°23.999 2°54.33 8.6 14 8 22.1
2010-06-03 07:10:00 51°24.018 2°54.335 9 14 8 22.1
2010-06-03 07:10:05 51°24.037 2°54.34 9 13.9 8 21.7
2010-06-03 07:10:10 51°24.057 2°54.344 9.4 14 8 22.6
2010-06-03 07:10:15 51°24.076 2°54.349 9.4 14 8 22.6
2010-06-03 07:10:20 51°24.095 2°54.353 9.4 13.9 8 22.4
2010-06-03 07:10:25 51°24.114 2°54.358 9.3 14 8 22.8
2010-06-03 07:10:30 51°24.133 2°54.362 9.2 14 8 22.7
2010-06-03 07:10:35 51°24.152 2°54.366 9 14 8 23.1
2010-06-03 07:10:40 51°24.171 2°54.37 8.9 14 8 22.6
2010-06-03 07:10:45 51°24.191 2°54.375 9 14 8 22.7
2010-06-03 07:10:50 51°24.21 2°54.379 9 13.9 8 22.8
2010-06-03 07:10:55 51°24.229 2°54.383 8.7 14 8 22.3
2010-06-03 07:11:00 51°24.249 2°54.387 9 14 8 22.7
2010-06-03 07:11:05 51°24.268 2°54.392 9.3 14 8 23.2
2010-06-03 07:11:10 51°24.287 2°54.396 9.5 14 8 23.2
2010-06-03 07:11:15 51°24.306 2°54.399 9.3 14 8 23.2
2010-06-03 07:11:20 51°24.326 2°54.405 9.4 14 8 23.7
2010-06-03 07:11:25 51°24.346 2°54.408 9 14 8 23.3
2010-06-03 07:11:30 51°24.364 2°54.413 9.1 14 8 23.2
2010-06-03 07:11:35 51°24.383 2°54.418 9.3 14 8 22.6
2010-06-03 07:11:40 51°24.402 2°54.423 9.4 14 8 22.1
2010-06-03 07:11:45 51°24.421 2°54.427 9.4 14 8 22.4
2010-06-03 07:11:50 51°24.441 2°54.432 9.3 14 8 22.2
2010-06-03 07:11:55 51°24.46 2°54.437 9.2 14 8 21.3
2010-06-03 07:12:00 51°24.479 2°54.441 9.1 14 8 21.8
2010-06-03 07:12:05 51°24.498 2°54.446 9.1 14.1 8 21.5
2010-06-03 07:12:10 51°24.518 2°54.451 9.2 14.1 8 20.7
2010-06-03 07:12:15 51°24.537 2°54.455 9.1 14 8 20.7
2010-06-03 07:12:20 51°24.556 2°54.459 9.1 14 8 20.6
2010-06-03 07:12:25 51°24.576 2°54.464 9.1 14 8 20.7
2010-06-03 07:12:30 51°24.595 2°54.469 9.6 14.1 9 20.4
2010-06-03 07:12:35 51°24.614 2°54.473 9.6 14.1 8 19.8
2010-06-03 07:12:40 51°24.633 2°54.478 9.4 14 8 19.2
2010-06-03 07:12:45 51°24.653 2°54.482 9.5 14.1 8 18.8
2010-06-03 07:12:50 51°24.672 2°54.486 9.3 14.1 8 19.7
2010-06-03 07:12:55 51°24.691 2°54.491 9 14 8 18.9
2010-06-03 07:13:00 51°24.711 2°54.495 9.4 14.1 9 18.4
2010-06-03 07:13:05 51°24.73 2°54.5 9.3 14.1 8 18.5
2010-06-03 07:13:10 51°24.749 2°54.505 9.4 14.1 9 17.5
2010-06-03 07:13:15 51°24.769 2°54.509 9.5 14 8 18.1
2010-06-03 07:13:20 51°24.788 2°54.514 9.3 14.1 9 18.9
2010-06-03 07:13:25 51°24.807 2°54.518 9.4 14.1 8 18.7
2010-06-03 07:13:30 51°24.827 2°54.523 9.5 14.1 9 18.2
2010-06-03 07:13:35 51°24.846 2°54.527 9.6 14.1 8 18.4
2010-06-03 07:13:40 51°24.865 2°54.532 9.5 14.1 9 18.5
2010-06-03 07:13:45 51°24.885 2°54.536 9.6 14.1 8 17.1
2010-06-03 07:13:50 51°24.904 2°54.541 9.4 14.1 9 18.6
2010-06-03 07:13:55 51°24.923 2°54.546 9.5 14.1 8 18.9
2010-06-03 07:14:00 51°24.943 2°54.55 9.3 14.1 8 19.8
2010-06-03 07:14:05 51°24.962 2°54.555 9.4 14.1 8 20.3
2010-06-03 07:14:10 51°24.982 2°54.559 9.3 14.2 9 20.5
2010-06-03 07:14:15 51°25.001 2°54.564 9.5 14.2 8 20.3
2010-06-03 07:14:20 51°25.02 2°54.568 9.2 14.2 8 20.2
2010-06-03 07:14:25 51°25.04 2°54.573 9.2 14.1 8 20.4
2010-06-03 07:14:30 51°25.059 2°54.576 8.9 14.1 7 20.6
2010-06-03 07:14:35 51°25.079 2°54.58 8.8 14.1 8 20.5
2010-06-03 07:14:40 51°25.098 2°54.584 8.8 14.2 7 20.8
2010-06-03 07:14:45 51°25.118 2°54.589 8.8 14.1 8 20.7
2010-06-03 07:14:50 51°25.137 2°54.592 9 14.1 7 21
2010-06-03 07:14:55 51°25.156 2°54.597 9 14.1 8 21.2
2010-06-03 07:15:00 51°25.176 2°54.6 9.3 14.1 7 21
2010-06-03 07:15:05 51°25.195 2°54.605 9.4 14.1 8 20.7
2010-06-03 07:15:10 51°25.215 2°54.609 9.2 14.1 7 20.4
2010-06-03 07:15:15 51°25.234 2°54.613 8.9 14.1 8 20.7
2010-06-03 07:15:20 51°25.253 2°54.617 9 14.1 8 20.7
2010-06-03 07:15:25 51°25.273 2°54.621 8.7 14.1 7 20.8
2010-06-03 07:15:30 51°25.292 2°54.625 9 14.1 7 20.6
2010-06-03 07:15:35 51°25.311 2°54.629 8.9 14.1 7 20.3
2010-06-03 07:15:40 51°25.331 2°54.632 8.8 14.1 7 19.1
2010-06-03 07:15:45 51°25.35 2°54.636 9 14.1 7 16.9
2010-06-03 07:15:50 51°25.369 2°54.639 8.8 14 6 18.7
2010-06-03 07:15:55 51°25.389 2°54.643 8.8 14 6 19.3
2010-06-03 07:16:00 51°25.408 2°54.647 9.1 14 7 19.8
2010-06-03 07:16:05 51°25.427 2°54.65 9.3 14 6 19.7
2010-06-03 07:16:10 51°25.446 2°54.654 9.3 14 7 20.3
2010-06-03 07:16:15 51°25.466 2°54.657 9.3 14 6 20.9
2010-06-03 07:16:20 51°25.485 2°54.661 9.6 14 7 21.1
2010-06-03 07:16:25 51°25.504 2°54.664 9.5 14 6 20.8
2010-06-03 07:16:30 51°25.523 2°54.668 9.5 13.9 7 20.7
2010-06-03 07:16:35 51°25.543 2°54.672 9.7 14 7 19.5
2010-06-03 07:16:40 51°25.562 2°54.676 9.7 14 7 19.9
2010-06-03 07:16:45 51°25.581 2°54.68 9.8 14 7 19.4
2010-06-03 07:16:50 51°25.6 2°54.683 9.3 13.9 7 19.8
2010-06-03 07:16:55 51°25.62 2°54.687 9.5 14 7 20.5
2010-06-03 07:17:00 51°25.639 2°54.69 9.2 14 6 20.9
2010-06-03 07:17:05 51°25.658 2°54.695 9.4 13.9 8 21.2
2010-06-03 07:17:10 51°25.677 2°54.698 9.5 13.9 6 21.2
2010-06-03 07:17:15 51°25.696 2°54.702 9.5 14 7 21.6
2010-06-03 07:17:20 51°25.716 2°54.705 9.5 14 6 21.7
2010-06-03 07:17:25 51°25.735 2°54.708 9 13.9 6 21.9
2010-06-03 07:17:30 51°25.754 2°54.712 8.9 13.9 6 21.3
2010-06-03 07:17:35 51°25.773 2°54.715 8.9 13.9 7 22.1
2010-06-03 07:17:40 51°25.792 2°54.719 8.8 13.9 6 22.4
2010-06-03 07:17:45 51°25.811 2°54.722 8.6 13.9 6 22.6
2010-06-03 07:17:50 51°25.83 2°54.726 9.3 13.9 7 22.8
2010-06-03 07:17:55 51°25.85 2°54.729 9.5 13.9 6 23.3
2010-06-03 07:18:00 51°25.869 2°54.733 9.4 13.9 7 23.2
2010-06-03 07:18:05 51°25.888 2°54.736 9.2 13.9 6 23.6
2010-06-03 07:18:10 51°25.907 2°54.74 9.3 13.9 7 23.7
2010-06-03 07:18:15 51°25.926 2°54.744 9.4 13.9 7 23.9
2010-06-03 07:18:20 51°25.945 2°54.748 9.5 13.9 7 24.3
2010-06-03 07:18:25 51°25.964 2°54.751 9.1 13.9 6 24.5
2010-06-03 07:18:30 51°25.983 2°54.755 9.3 13.8 7 24.6
2010-06-03 07:18:35 51°26.002 2°54.759 9.4 13.9 8 24.9
2010-06-03 07:18:40 51°26.021 2°54.763 9.8 13.9 8 25
2010-06-03 07:18:45 51°26.04 2°54.766 9.4 13.9 6 25.2
2010-06-03 07:18:50 51°26.059 2°54.77 9.4 13.9 8 25.4
2010-06-03 07:18:55 51°26.079 2°54.774 9.5 13.9 7 25.6
2010-06-03 07:19:00 51°26.097 2°54.778 9.9 13.8 8 25.4
2010-06-03 07:19:05 51°26.117 2°54.782 9.6 13.8 7 25.5
2010-06-03 07:19:10 51°26.135 2°54.785 9.4 13.8 7 25.8
2010-06-03 07:19:15 51°26.155 2°54.789 9.3 13.8 7 25.9
2010-06-03 07:19:20 51°26.174 2°54.793 9.5 13.9 8 25.7
2010-06-03 07:19:25 51°26.193 2°54.797 9.6 13.9 7 25.8
2010-06-03 07:19:30 51°26.212 2°54.8 9.8 13.9 8 26.1
2010-06-03 07:19:35 51°26.231 2°54.805 9.9 13.8 7 26.4
2010-06-03 07:19:40 51°26.25 2°54.809 9.7 13.8 7 26.5
2010-06-03 07:19:45 51°26.269 2°54.813 9.9 13.8 8 26.4
2010-06-03 07:19:50 51°26.288 2°54.817 9.6 13.8 6 25.1
2010-06-03 07:19:55 51°26.307 2°54.821 9.3 13.8 8 26.2
2010-06-03 07:20:00 51°26.326 2°54.824 9.3 13.8 7 26.9
2010-06-03 07:20:05 51°26.345 2°54.828 9.3 13.8 7 26.9
2010-06-03 07:20:10 51°26.363 2°54.832 9.6 13.7 8 26.9
2010-06-03 07:20:15 51°26.382 2°54.836 9.5 13.7 8 25.2
2010-06-03 07:20:20 51°26.401 2°54.841 9.8 13.7 8 24.3
2010-06-03 07:20:25 51°26.42 2°54.844 9.7 13.7 7 25.8
2010-06-03 07:20:30 51°26.439 2°54.849 9.4 13.7 8 26.2
2010-06-03 07:20:35 51°26.458 2°54.852 9.1 13.7 7 26.3
2010-06-03 07:20:40 51°26.476 2°54.857 9 13.7 8 26.8
2010-06-03 07:20:45 51°26.495 2°54.861 9.3 13.7 8 27.7
2010-06-03 07:20:50 51°26.514 2°54.866 9.7 13.7 8 28.1
2010-06-03 07:20:55 51°26.533 2°54.87 9.5 13.7 8 27.6
2010-06-03 07:21:00 51°26.552 2°54.875 9.5 13.7 9 26.5
2010-06-03 07:21:05 51°26.571 2°54.879 9.4 13.8 8 26.6
2010-06-03 07:21:10 51°26.59 2°54.884 9.3 13.8 9 28.2
2010-06-03 07:21:15 51°26.609 2°54.888 9.6 13.8 7 28.8
2010-06-03 07:21:20 51°26.628 2°54.892 9.2 13.8 8 29.1
2010-06-03 07:21:25 51°26.647 2°54.896 9.1 13.8 7 29.1
2010-06-03 07:21:30 51°26.666 2°54.9 8.8 13.8 8 28.9
2010-06-03 07:21:35 51°26.685 2°54.904 9.1 13.8 8 28.9
2010-06-03 07:21:40 51°26.703 2°54.909 9.1 13.8 8 28.3
2010-06-03 07:21:45 51°26.722 2°54.913 9.1 13.8 8 28.2
2010-06-03 07:21:50 51°26.742 2°54.917 9 13.8 7 28
2010-06-03 07:21:55 51°26.76 2°54.921 8.8 13.8 7 27.8
2010-06-03 07:22:00 51°26.78 2°54.925 8.9 13.8 8 27.7
2010-06-03 07:22:05 51°26.799 2°54.929 9.1 13.8 7 27.3
2010-06-03 07:22:10 51°26.818 2°54.933 9.1 13.8 8 27
2010-06-03 07:22:15 51°26.837 2°54.937 9.3 13.9 7 26.9
2010-06-03 07:22:20 51°26.856 2°54.941 9.2 13.8 8 26.7
2010-06-03 07:22:25 51°26.875 2°54.945 9.4 13.9 7 27.1
2010-06-03 07:22:30 51°26.894 2°54.949 8.9 13.9 7 27.2
2010-06-03 07:22:35 51°26.913 2°54.952 8.8 13.9 6 27.4
2010-06-03 07:22:40 51°26.932 2°54.956 8.7 13.9 7 27.7
2010-06-03 07:22:45 51°26.951 2°54.959 8.7 13.9 6 27.5
2010-06-03 07:22:50 51°26.97 2°54.963 8.8 13.9 7 27.6
2010-06-03 07:22:55 51°26.99 2°54.967 9 13.9 7 28
2010-06-03 07:23:00 51°27.009 2°54.971 9.1 13.9 7 28.3
2010-06-03 07:23:05 51°27.028 2°54.975 9.1 13.9 7 28.5
2010-06-03 07:23:10 51°27.047 2°54.978 9.1 13.9 7 28.7
2010-06-03 07:23:15 51°27.066 2°54.982 9.1 13.9 7 29
2010-06-03 07:23:20 51°27.085 2°54.986 9.5 13.9 8 29.2
2010-06-03 07:23:25 51°27.104 2°54.99 9.5 13.9 7 29.2
2010-06-03 07:23:30 51°27.123 2°54.994 9.5 13.9 8 29.3
2010-06-03 07:23:35 51°27.142 2°54.998 9.5 13.9 7 29.4
2010-06-03 07:23:40 51°27.161 2°55.002 9.5 13.9 8 29.5
2010-06-03 07:23:45 51°27.18 2°55.006 9.3 13.9 7 29
2010-06-03 07:23:50 51°27.2 2°55.01 9.2 13.9 8 29.1
2010-06-03 07:23:55 51°27.219 2°55.014 9.3 13.9 7 29.2
2010-06-03 07:24:00 51°27.238 2°55.018 9.2 13.9 7 29.2
2010-06-03 07:24:05 51°27.257 2°55.022 9.1 13.9 7 29.7
2010-06-03 07:24:10 51°27.276 2°55.026 9.2 13.9 8 29.9
2010-06-03 07:24:15 51°27.295 2°55.029 9.5 13.9 7 30.2
2010-06-03 07:24:20 51°27.314 2°55.034 9.4 13.9 8 30.3
2010-06-03 07:24:25 51°27.333 2°55.038 9.5 13.9 8 30.1
2010-06-03 07:24:30 51°27.353 2°55.042 9.4 14 7 30
2010-06-03 07:24:35 51°27.372 2°55.046 9.3 13.9 8 30.1
2010-06-03 07:24:40 51°27.391 2°55.05 9.3 13.9 8 30.7
2010-06-03 07:24:45 51°27.41 2°55.053 9.4 13.9 7 30.2
2010-06-03 07:24:50 51°27.429 2°55.058 9.3 13.9 7 30.3
2010-06-03 07:24:55 51°27.448 2°55.062 9.5 13.9 7 28.2
2010-06-03 07:25:00 51°27.468 2°55.066 9.4 14 7 30
2010-06-03 07:25:05 51°27.487 2°55.069 9.2 14 7 30.4
2010-06-03 07:25:10 51°27.506 2°55.073 9 14 7 30.6
2010-06-03 07:25:15 51°27.525 2°55.077 8.8 14 7 30.1
2010-06-03 07:25:20 51°27.545 2°55.082 9.1 14 8 29.6
2010-06-03 07:25:25 51°27.564 2°55.085 9.1 13.9 7 29.4
2010-06-03 07:25:30 51°27.583 2°55.089 9.2 13.9 8 29.7
2010-06-03 07:25:35 51°27.602 2°55.093 9.1 14 7 29.4
2010-06-03 07:25:40 51°27.621 2°55.097 9.1 13.9 8 29.1
2010-06-03 07:25:45 51°27.64 2°55.101 9.5 13.9 7 29
2010-06-03 07:25:50 51°27.66 2°55.105 9.3 13.9 8 29.1
2010-06-03 07:25:55 51°27.679 2°55.108 9.6 14 6 28.7
2010-06-03 07:26:00 51°27.698 2°55.113 9.3 14 7 28.7
2010-06-03 07:26:05 51°27.717 2°55.116 9.2 13.9 7 28.2
2010-06-03 07:26:10 51°27.736 2°55.12 9.2 14 7 28.7
2010-06-03 07:26:15 51°27.756 2°55.123 8.9 14 7 28.5
2010-06-03 07:26:20 51°27.775 2°55.128 9.1 14 7 29
2010-06-03 07:26:25 51°27.794 2°55.131 9.4 14 7 28.7
2010-06-03 07:26:30 51°27.813 2°55.135 9.5 13.9 8 28.6
2010-06-03 07:26:35 51°27.833 2°55.139 9.6 14 7 28.5
2010-06-03 07:26:40 51°27.852 2°55.144 9.6 14 8 28.9
2010-06-03 07:26:45 51°27.871 2°55.148 9.7 14 8 28.5
2010-06-03 07:26:50 51°27.89 2°55.152 9.7 14 7 28.3
2010-06-03 07:26:55 51°27.909 2°55.156 9.6 14 7 28.6
2010-06-03 07:27:00 51°27.929 2°55.16 9.6 14 8 29.1
2010-06-03 07:27:05 51°27.948 2°55.164 9.8 14 8 28.6
2010-06-03 07:27:10 51°27.967 2°55.168 9.7 14 7 26.8
2010-06-03 07:27:15 51°27.986 2°55.173 9.9 14 8 28.2
2010-06-03 07:27:20 51°28.006 2°55.177 10 14.1 8 28.2
2010-06-03 07:27:25 51°28.025 2°55.181 9.5 14.1 7 26.4
2010-06-03 07:27:30 51°28.044 2°55.185 9.2 14 7 27.5
2010-06-03 07:27:35 51°28.064 2°55.188 9.2 14 7 27.8
2010-06-03 07:27:40 51°28.083 2°55.192 8.8 14.1 7 26.4
2010-06-03 07:27:45 51°28.102 2°55.196 9.3 14 8 26.1
2010-06-03 07:27:50 51°28.122 2°55.2 9.3 14 7 26.6
2010-06-03 07:27:55 51°28.141 2°55.204 9.5 14.1 8 27
2010-06-03 07:28:00 51°28.16 2°55.208 9.5 14.1 7 25.1
2010-06-03 07:28:05 51°28.18 2°55.213 9.5 14.1 8 25.9
2010-06-03 07:28:10 51°28.199 2°55.216 9.5 14.1 7 25.3
2010-06-03 07:28:15 51°28.218 2°55.22 9.5 14.1 8 24.1
2010-06-03 07:28:20 51°28.238 2°55.224 9.5 14.1 7 23.6
2010-06-03 07:28:25 51°28.257 2°55.229 9.7 14.1 9 24.8
2010-06-03 07:28:30 51°28.276 2°55.233 9.8 14.1 8 25.3
2010-06-03 07:28:35 51°28.296 2°55.238 9.8 14.1 8 24.3
2010-06-03 07:28:40 51°28.315 2°55.242 9.6 14.1 8 23.5
2010-06-03 07:28:45 51°28.335 2°55.247 9.3 14.1 8 24.2
2010-06-03 07:28:50 51°28.354 2°55.251 9 14.2 8 22.4
2010-06-03 07:28:55 51°28.374 2°55.255 9.1 14.2 8 23.3
2010-06-03 07:29:00 51°28.393 2°55.26 9.1 14.2 8 21.8
2010-06-03 07:29:05 51°28.413 2°55.264 9.1 14.2 8 22.9
2010-06-03 07:29:10 51°28.432 2°55.268 9.2 14.3 8 23.4
2010-06-03 07:29:15 51°28.452 2°55.272 9.2 14.3 8 22.6
2010-06-03 07:29:20 51°28.472 2°55.277 8.9 14.2 7 23.1
2010-06-03 07:29:25 51°28.491 2°55.281 9.3 14.3 8 22.9
2010-06-03 07:29:30 51°28.511 2°55.285 9.1 14.3 8 22.2
2010-06-03 07:29:35 51°28.53 2°55.29 9.3 14.2 8 22.9
2010-06-03 07:29:40 51°28.55 2°55.294 9.4 14.3 8 23.6
2010-06-03 07:29:45 51°28.57 2°55.298 9 14.2 8 23.3
2010-06-03 07:29:50 51°28.589 2°55.303 8.9 14.2 7 23
2010-06-03 07:29:55 51°28.609 2°55.307 9.1 14.3 7 23.5
2010-06-03 07:30:00 51°28.628 2°55.31 8.1 14.2 5 21.6
2010-06-03 07:30:05 51°28.648 2°55.311 6.1 14.2 4 22.5
2010-06-03 07:30:10 51°28.668 2°55.313 5 14.2 3 23.1
2010-06-03 07:30:15 51°28.687 2°55.313 3.7 14.1 1 23.3
2010-06-03 07:30:20 51°28.707 2°55.314 2.3 14.1 1 23.5
2010-06-03 07:30:25 51°28.726 2°55.313 1.3 14.1 359 23.5
2010-06-03 07:30:30 51°28.746 2°55.313 0.8 14.1 -999 22.3
2010-06-03 07:30:35 51°28.765 2°55.312 359.9 14 358 23.1
2010-06-03 07:30:40 51°28.785 2°55.311 359.8 14 359 23.5
2010-06-03 07:30:45 51°28.804 2°55.31 359.5 14 357 24
2010-06-03 07:30:50 51°28.824 2°55.308 359.3 13.9 358 23.8
2010-06-03 07:30:55 51°28.843 2°55.307 359 13.9 357 22.6
2010-06-03 07:31:00 51°28.862 2°55.306 359.1 13.9 358 23.5
2010-06-03 07:31:05 51°28.881 2°55.304 358.7 13.9 357 23.6
2010-06-03 07:31:10 51°28.901 2°55.304 359.4 13.8 358 23.6
2010-06-03 07:31:15 51°28.92 2°55.302 359.3 13.9 357 23.9
2010-06-03 07:31:20 51°28.939 2°55.301 359.4 13.9 358 24.3
2010-06-03 07:31:25 51°28.958 2°55.3 359.4 13.9 358 24.4
2010-06-03 07:31:30 51°28.977 2°55.299 359.8 13.9 359 25
2010-06-03 07:31:35 51°28.997 2°55.298 359.7 13.9 358 25.4
2010-06-03 07:31:40 51°29.016 2°55.297 359.5 13.9 358 25.5
2010-06-03 07:31:45 51°29.035 2°55.296 359.3 13.9 358 25.6
2010-06-03 07:31:50 51°29.055 2°55.295 359.3 13.9 359 25.6
2010-06-03 07:31:55 51°29.074 2°55.293 359.7 13.9 357 25.9
2010-06-03 07:32:00 51°29.093 2°55.292 359.4 13.8 358 25.6
2010-06-03 07:32:05 51°29.112 2°55.29 359.7 13.8 357 25.4
2010-06-03 07:32:10 51°29.131 2°55.289 359.4 13.8 358 25.8
2010-06-03 07:32:15 51°29.15 2°55.288 359.3 13.8 358 25.8
2010-06-03 07:32:20 51°29.17 2°55.287 359.8 13.9 358 25.6
2010-06-03 07:32:25 51°29.189 2°55.286 359.8 13.9 358 25.6
2010-06-03 07:32:30 51°29.208 2°55.284 359.8 13.9 358 25.6
2010-06-03 07:32:35 51°29.227 2°55.284 0.1 13.9 358 25.8
2010-06-03 07:32:40 51°29.246 2°55.282 359.9 13.9 358 26.3
2010-06-03 07:32:45 51°29.265 2°55.281 359.9 13.7 359 26
2010-06-03 07:32:50 51°29.284 2°55.28 0.4 13.8 358 26.5
2010-06-03 07:32:55 51°29.303 2°55.28 0.1 13.7 359 26.6
2010-06-03 07:33:00 51°29.322 2°55.278 0.1 13.7 358 26.9
2010-06-03 07:33:05 51°29.341 2°55.278 359.9 13.7 358 27.2
2010-06-03 07:33:10 51°29.36 2°55.277 0.1 13.6 359 27.1
2010-06-03 07:33:15 51°29.379 2°55.276 -999 13.7 358 27.2
2010-06-03 07:33:20 51°29.398 2°55.275 0.1 13.6 359 27.3
2010-06-03 07:33:25 51°29.417 2°55.274 359.9 13.7 358 27.3
2010-06-03 07:33:30 51°29.436 2°55.273 359.9 13.6 359 27.4
2010-06-03 07:33:35 51°29.455 2°55.272 359.9 13.6 358 27.6
2010-06-03 07:33:40 51°29.474 2°55.272 359.7 13.5 358 27.7
2010-06-03 07:33:45 51°29.492 2°55.271 0.1 13.6 358 27.8
2010-06-03 07:33:50 51°29.511 2°55.269 359.9 13.6 358 28.2
2010-06-03 07:33:55 51°29.53 2°55.269 359.8 13.5 358 28.2
2010-06-03 07:34:00 51°29.548 2°55.268 359.8 13.5 358 28.5
2010-06-03 07:34:05 51°29.567 2°55.267 359.8 13.5 358 28.5
2010-06-03 07:34:10 51°29.586 2°55.266 -999 13.5 358 28.5
2010-06-03 07:34:15 51°29.605 2°55.265 359.9 13.5 358 28.6
2010-06-03 07:34:20 51°29.623 2°55.263 359.9 13.5 358 28.7
2010-06-03 07:34:25 51°29.642 2°55.263 359.8 13.6 358 28.7
2010-06-03 07:34:30 51°29.661 2°55.262 0.2 13.6 358 28.8
2010-06-03 07:34:35 51°29.68 2°55.261 0.1 13.6 358 28.9
2010-06-03 07:34:40 51°29.699 2°55.26 0.1 13.5 358 29
2010-06-03 07:34:45 51°29.717 2°55.259 359.7 13.5 358 29.2
2010-06-03 07:34:50 51°29.736 2°55.258 359.9 13.5 359 29.4
2010-06-03 07:34:55 51°29.755 2°55.257 0.1 13.5 357 29.4
2010-06-03 07:35:00 51°29.774 2°55.256 -999 13.5 358 29.4
2010-06-03 07:35:05 51°29.792 2°55.255 0.1 13.5 357 29.6
2010-06-03 07:35:10 51°29.811 2°55.253 359.6 13.5 358 29.9
2010-06-03 07:35:15 51°29.83 2°55.252 359.7 13.6 358 29.9
2010-06-03 07:35:20 51°29.849 2°55.251 359.6 13.5 358 30
2010-06-03 07:35:25 51°29.868 2°55.25 0.1 13.6 359 30.1
2010-06-03 07:35:30 51°29.886 2°55.249 0.1 13.5 358 30.1
2010-06-03 07:35:35 51°29.905 2°55.248 0.2 13.6 358 30.1
2010-06-03 07:35:40 51°29.924 2°55.247 359.9 13.5 357 30.2
2010-06-03 07:35:45 51°29.942 2°55.246 0.2 13.5 359 29.9
2010-06-03 07:35:50 51°29.961 2°55.245 0.3 13.6 358 29.9
2010-06-03 07:35:55 51°29.98 2°55.245 0.1 13.5 359 30
2010-06-03 07:36:00 51°29.999 2°55.243 0.2 13.6 358 30
2010-06-03 07:36:05 51°30.018 2°55.243 -999 13.6 358 30.4
2010-06-03 07:36:10 51°30.036 2°55.241 0.2 13.6 358 30.5
2010-06-03 07:36:15 51°30.055 2°55.241 0.1 13.6 359 30.9
2010-06-03 07:36:20 51°30.074 2°55.24 0.4 13.7 359 30.8
2010-06-03 07:36:25 51°30.093 2°55.24 0.8 13.7 359 31.2
2010-06-03 07:36:30 51°30.112 2°55.239 0.8 13.7 359 32